createdAt,value
2017-08-05T00:00:40.047Z,0
2017-08-05T00:01:39.531Z,0
2017-08-05T00:02:40.047Z,0
2017-08-05T00:03:40.047Z,0
2017-08-05T00:04:40.153Z,0
2017-08-05T00:05:40.040Z,0
2017-08-05T00:06:40.043Z,0
2017-08-05T00:07:40.245Z,0
2017-08-05T00:08:39.744Z,0
2017-08-05T00:09:40.046Z,0
2017-08-05T00:10:40.288Z,0
2017-08-05T00:11:40.286Z,0
2017-08-05T00:12:40.060Z,0
2017-08-05T00:13:40.032Z,0
2017-08-05T00:14:39.733Z,0
2017-08-05T00:15:40.044Z,0
2017-08-05T00:16:40.291Z,0
2017-08-05T00:17:40.042Z,0
2017-08-05T00:18:39.830Z,0
2017-08-05T00:19:40.128Z,0
2017-08-05T00:20:39.735Z,0
2017-08-05T00:21:40.027Z,0
2017-08-05T00:22:40.040Z,0
2017-08-05T00:23:40.128Z,0
2017-08-05T00:24:39.817Z,0
2017-08-05T00:25:39.814Z,0
2017-08-05T00:26:39.715Z,0
2017-08-05T00:27:39.717Z,0
2017-08-05T00:28:40.135Z,0
2017-08-05T00:29:40.122Z,0
2017-08-05T00:30:40.226Z,0
2017-08-05T00:31:39.715Z,0
2017-08-05T00:32:40.016Z,0
2017-08-05T00:33:40.117Z,0
2017-08-05T00:34:40.146Z,0
2017-08-05T00:35:40.164Z,0
2017-08-05T00:36:39.811Z,0
2017-08-05T00:37:39.714Z,0
2017-08-05T00:38:39.868Z,0
2017-08-05T00:39:39.803Z,0
2017-08-05T00:40:39.855Z,0
2017-08-05T00:41:39.702Z,0
2017-08-05T00:42:40.022Z,0
2017-08-05T00:43:40.168Z,0
2017-08-05T00:44:39.906Z,0
2017-08-05T00:45:39.698Z,0
2017-08-05T00:46:40.048Z,0
2017-08-05T00:47:40.014Z,0
2017-08-05T00:48:39.691Z,0
2017-08-05T00:49:40.103Z,0
2017-08-05T00:50:40.006Z,0
2017-08-05T00:51:39.789Z,0
2017-08-05T00:52:39.997Z,0
2017-08-05T00:53:39.686Z,0
2017-08-05T00:54:39.692Z,0
2017-08-05T00:55:39.992Z,0
2017-08-05T00:56:40.191Z,0
2017-08-05T00:57:39.991Z,0
2017-08-05T00:58:40.194Z,0
2017-08-05T00:59:39.990Z,0
2017-08-05T01:00:39.934Z,0
2017-08-05T01:01:39.882Z,0
2017-08-05T01:02:39.985Z,0
2017-08-05T01:03:39.991Z,0
2017-08-05T01:04:39.673Z,0
2017-08-05T01:05:39.776Z,0
2017-08-05T01:06:40.331Z,0
2017-08-05T01:07:39.827Z,0
2017-08-05T01:08:39.977Z,0
2017-08-05T01:09:39.997Z,0
2017-08-05T01:10:39.982Z,0
2017-08-05T01:11:39.673Z,0
2017-08-05T01:12:40.382Z,0
2017-08-05T01:13:39.676Z,0
2017-08-05T01:14:40.070Z,0
2017-08-05T01:15:39.667Z,0
2017-08-05T01:16:39.670Z,0
2017-08-05T01:17:39.913Z,0
2017-08-05T01:18:39.817Z,0
2017-08-05T01:19:39.789Z,0
2017-08-05T01:20:39.965Z,0
2017-08-05T01:21:39.960Z,0
2017-08-05T01:22:39.969Z,0
2017-08-05T01:23:40.071Z,0
2017-08-05T01:24:39.964Z,0
2017-08-05T01:25:39.978Z,0
2017-08-05T01:26:40.109Z,0
2017-08-05T01:27:39.652Z,0
2017-08-05T01:28:40.116Z,0
2017-08-05T01:29:40.110Z,0
2017-08-05T01:30:39.948Z,0
2017-08-05T01:31:39.949Z,0
2017-08-05T01:32:40.054Z,0
2017-08-05T01:33:39.954Z,0
2017-08-05T01:34:40.199Z,0
2017-08-05T01:35:39.949Z,0
2017-08-05T01:36:39.949Z,0
2017-08-05T01:37:39.954Z,0
2017-08-05T01:38:39.944Z,0
2017-08-05T01:39:39.644Z,0
2017-08-05T01:40:39.637Z,0
2017-08-05T01:41:39.939Z,0
2017-08-05T01:42:39.940Z,0
2017-08-05T01:43:40.048Z,0
2017-08-05T01:44:39.884Z,0
2017-08-05T01:45:40.138Z,0
2017-08-05T01:46:39.944Z,0
2017-08-05T01:47:39.634Z,0
2017-08-05T01:48:39.944Z,0
2017-08-05T01:49:39.725Z,0
2017-08-05T01:50:39.933Z,0
2017-08-05T01:51:39.627Z,0
2017-08-05T01:52:39.624Z,0
2017-08-05T01:53:40.036Z,0
2017-08-05T01:54:40.032Z,0
2017-08-05T01:55:39.932Z,0
2017-08-05T01:56:39.926Z,0
2017-08-05T01:57:40.030Z,0
2017-08-05T01:58:39.920Z,0
2017-08-05T01:59:39.915Z,0
2017-08-05T02:00:40.011Z,0
2017-08-05T02:01:39.924Z,0
2017-08-05T02:02:39.914Z,0
2017-08-05T02:03:39.909Z,0
2017-08-05T02:04:40.064Z,0
2017-08-05T02:05:40.011Z,0
2017-08-05T02:06:39.916Z,0
2017-08-05T02:07:39.906Z,0
2017-08-05T02:08:39.917Z,0
2017-08-05T02:09:40.010Z,0
2017-08-05T02:10:39.910Z,0
2017-08-05T02:11:39.703Z,0
2017-08-05T02:12:39.903Z,0
2017-08-05T02:13:39.901Z,0
2017-08-05T02:14:40.053Z,0
2017-08-05T02:15:40.103Z,0
2017-08-05T02:16:39.896Z,0
2017-08-05T02:17:40.048Z,0
2017-08-05T02:18:39.591Z,0
2017-08-05T02:19:39.894Z,0
2017-08-05T02:20:39.604Z,0
2017-08-05T02:21:40.044Z,0
2017-08-05T02:22:40.043Z,0
2017-08-05T02:23:39.291Z,0
2017-08-05T02:24:39.886Z,0
2017-08-05T02:25:39.885Z,0
2017-08-05T02:26:39.984Z,0
2017-08-05T02:27:40.137Z,0
2017-08-05T02:28:39.882Z,0
2017-08-05T02:29:39.879Z,0
2017-08-05T02:30:39.882Z,0
2017-08-05T02:31:39.727Z,0
2017-08-05T02:32:39.890Z,0
2017-08-05T02:33:39.985Z,0
2017-08-05T02:34:39.881Z,0
2017-08-05T02:35:39.878Z,0
2017-08-05T02:36:40.034Z,0
2017-08-05T02:37:39.877Z,0
2017-08-05T02:38:39.894Z,0
2017-08-05T02:39:39.878Z,0
2017-08-05T02:40:39.760Z,0
2017-08-05T02:41:40.085Z,0
2017-08-05T02:42:40.021Z,0
2017-08-05T02:43:39.561Z,0
2017-08-05T02:44:39.679Z,0
2017-08-05T02:45:39.875Z,0
2017-08-05T02:46:40.051Z,0
2017-08-05T02:47:39.561Z,0
2017-08-05T02:48:39.863Z,0
2017-08-05T02:49:39.956Z,0
2017-08-05T02:50:39.856Z,0
2017-08-05T02:51:39.867Z,0
2017-08-05T02:52:39.849Z,0
2017-08-05T02:53:40.057Z,0
2017-08-05T02:54:39.750Z,0
2017-08-05T02:55:39.847Z,0
2017-08-05T02:56:39.847Z,0
2017-08-05T02:57:39.700Z,0
2017-08-05T02:58:39.541Z,0
2017-08-05T02:59:39.958Z,0
2017-08-05T03:00:39.538Z,0
2017-08-05T03:01:39.842Z,0
2017-08-05T03:02:40.045Z,0
2017-08-05T03:03:39.810Z,0
2017-08-05T03:04:39.941Z,0
2017-08-05T03:05:39.829Z,0
2017-08-05T03:06:39.986Z,0
2017-08-05T03:07:39.993Z,0
2017-08-05T03:08:39.731Z,0
2017-08-05T03:09:39.834Z,0
2017-08-05T03:10:39.828Z,0
2017-08-05T03:11:39.835Z,0
2017-08-05T03:12:39.823Z,0
2017-08-05T03:13:39.832Z,0
2017-08-05T03:14:39.824Z,0
2017-08-05T03:15:39.815Z,0
2017-08-05T03:16:39.526Z,0
2017-08-05T03:17:39.820Z,0
2017-08-05T03:18:39.825Z,0
2017-08-05T03:19:40.020Z,0
2017-08-05T03:20:39.826Z,0
2017-08-05T03:21:39.821Z,0
2017-08-05T03:22:39.918Z,0
2017-08-05T03:23:39.825Z,0
2017-08-05T03:24:40.014Z,0
2017-08-05T03:25:39.651Z,0
2017-08-05T03:26:39.809Z,0
2017-08-05T03:27:39.807Z,0
2017-08-05T03:28:39.902Z,0
2017-08-05T03:29:39.905Z,0
2017-08-05T03:30:39.959Z,0
2017-08-05T03:31:39.839Z,0
2017-08-05T03:32:39.497Z,0
2017-08-05T03:33:39.492Z,0
2017-08-05T03:34:39.492Z,0
2017-08-05T03:35:39.907Z,0
2017-08-05T03:36:39.592Z,0
2017-08-05T03:37:39.791Z,0
2017-08-05T03:38:39.792Z,0
2017-08-05T03:39:39.789Z,0
2017-08-05T03:40:39.631Z,0
2017-08-05T03:41:39.790Z,0
2017-08-05T03:42:39.783Z,0
2017-08-05T03:43:39.781Z,0
2017-08-05T03:44:39.783Z,0
2017-08-05T03:45:39.781Z,0
2017-08-05T03:46:39.926Z,0
2017-08-05T03:47:39.782Z,0
2017-08-05T03:48:39.778Z,0
2017-08-05T03:49:39.870Z,0
2017-08-05T03:50:39.885Z,0
2017-08-05T03:51:39.473Z,0
2017-08-05T03:52:39.463Z,0
2017-08-05T03:53:39.918Z,0
2017-08-05T03:54:39.868Z,0
2017-08-05T03:55:39.901Z,0
2017-08-05T03:56:39.765Z,0
2017-08-05T03:57:39.768Z,0
2017-08-05T03:58:39.908Z,0
2017-08-05T03:59:39.763Z,0
2017-08-05T04:00:39.861Z,0
2017-08-05T04:01:39.704Z,0
2017-08-05T04:02:39.761Z,0
2017-08-05T04:03:39.764Z,0
2017-08-05T04:04:39.597Z,0
2017-08-05T04:05:39.758Z,0
2017-08-05T04:06:39.906Z,0
2017-08-05T04:07:39.857Z,0
2017-08-05T04:08:39.750Z,0
2017-08-05T04:09:39.842Z,0
2017-08-05T04:10:39.752Z,0
2017-08-05T04:11:39.898Z,0
2017-08-05T04:12:39.698Z,5
2017-08-05T04:13:39.739Z,5
2017-08-05T04:14:39.743Z,5
2017-08-05T04:15:39.751Z,5
2017-08-05T04:16:39.736Z,5
2017-08-05T04:17:39.981Z,5
2017-08-05T04:18:39.741Z,5
2017-08-05T04:19:39.733Z,5
2017-08-05T04:20:39.734Z,5
2017-08-05T04:21:39.742Z,5
2017-08-05T04:22:39.879Z,5
2017-08-05T04:23:39.733Z,10
2017-08-05T04:24:39.833Z,10
2017-08-05T04:25:39.420Z,10
2017-08-05T04:26:39.422Z,10
2017-08-05T04:27:39.720Z,10
2017-08-05T04:28:39.724Z,10
2017-08-05T04:29:39.819Z,10
2017-08-05T04:30:39.863Z,15
2017-08-05T04:31:39.405Z,15
2017-08-05T04:32:39.517Z,15
2017-08-05T04:33:39.714Z,15
2017-08-05T04:34:39.868Z,15
2017-08-05T04:35:39.858Z,20
2017-08-05T04:36:40.016Z,20
2017-08-05T04:37:39.705Z,20
2017-08-05T04:38:39.702Z,25
2017-08-05T04:39:39.701Z,25
2017-08-05T04:40:39.800Z,25
2017-08-05T04:41:39.389Z,25
2017-08-05T04:42:39.545Z,25
2017-08-05T04:43:39.706Z,30
2017-08-05T04:44:39.392Z,30
2017-08-05T04:45:39.789Z,35
2017-08-05T04:46:39.951Z,40
2017-08-05T04:47:39.845Z,45
2017-08-05T04:48:39.378Z,45
2017-08-05T04:49:39.389Z,45
2017-08-05T04:50:39.390Z,45
2017-08-05T04:51:39.692Z,45
2017-08-05T04:52:39.941Z,45
2017-08-05T04:53:39.687Z,45
2017-08-05T04:54:39.687Z,45
2017-08-05T04:55:39.685Z,45
2017-08-05T04:56:39.880Z,50
2017-08-05T04:57:39.683Z,35
2017-08-05T04:58:39.785Z,40
2017-08-05T04:59:39.674Z,30
2017-08-05T05:00:39.678Z,30
2017-08-05T05:01:39.466Z,35
2017-08-05T05:02:39.670Z,65
2017-08-05T05:03:39.513Z,70
2017-08-05T05:04:39.669Z,70
2017-08-05T05:05:39.669Z,75
2017-08-05T05:06:39.826Z,80
2017-08-05T05:07:39.817Z,70
2017-08-05T05:08:39.366Z,80
2017-08-05T05:09:39.669Z,85
2017-08-05T05:10:39.965Z,90
2017-08-05T05:11:39.662Z,75
2017-08-05T05:12:39.685Z,50
2017-08-05T05:13:39.659Z,90
2017-08-05T05:14:39.655Z,95
2017-08-05T05:15:39.963Z,120
2017-08-05T05:16:39.662Z,60
2017-08-05T05:17:39.765Z,135
2017-08-05T05:18:39.654Z,145
2017-08-05T05:19:39.654Z,130
2017-08-05T05:20:39.660Z,145
2017-08-05T05:21:39.497Z,145
2017-08-05T05:22:39.758Z,150
2017-08-05T05:23:39.851Z,140
2017-08-05T05:24:39.654Z,165
2017-08-05T05:25:39.646Z,170
2017-08-05T05:26:39.659Z,170
2017-08-05T05:27:39.950Z,80
2017-08-05T05:28:39.657Z,155
2017-08-05T05:29:39.501Z,175
2017-08-05T05:30:39.342Z,175
2017-08-05T05:31:39.653Z,190
2017-08-05T05:32:39.756Z,185
2017-08-05T05:33:39.652Z,220
2017-08-05T05:34:39.755Z,240
2017-08-05T05:35:39.346Z,245
2017-08-05T05:36:39.662Z,245
2017-08-05T05:37:39.752Z,255
2017-08-05T05:38:39.346Z,250
2017-08-05T05:39:39.757Z,255
2017-08-05T05:40:39.653Z,260
2017-08-05T05:41:39.345Z,270
2017-08-05T05:42:39.455Z,275
2017-08-05T05:43:39.444Z,290
2017-08-05T05:44:39.650Z,285
2017-08-05T05:45:39.654Z,285
2017-08-05T05:46:39.797Z,275
2017-08-05T05:47:39.661Z,120
2017-08-05T05:48:39.651Z,95
2017-08-05T05:49:39.202Z,90
2017-08-05T05:50:39.811Z,105
2017-08-05T05:51:39.810Z,115
2017-08-05T05:52:39.666Z,85
2017-08-05T05:53:39.665Z,85
2017-08-05T05:54:39.860Z,75
2017-08-05T05:55:39.665Z,80
2017-08-05T05:56:39.664Z,85
2017-08-05T05:57:39.661Z,90
2017-08-05T05:58:39.360Z,95
2017-08-05T05:59:39.763Z,160
2017-08-05T06:00:39.668Z,280
2017-08-05T06:01:39.515Z,155
2017-08-05T06:02:39.862Z,215
2017-08-05T06:03:39.770Z,105
2017-08-05T06:04:39.672Z,140
2017-08-05T06:05:39.671Z,150
2017-08-05T06:06:39.866Z,180
2017-08-05T06:07:39.669Z,150
2017-08-05T06:08:39.680Z,330
2017-08-05T06:09:39.867Z,405
2017-08-05T06:10:39.675Z,395
2017-08-05T06:11:39.372Z,160
2017-08-05T06:12:39.373Z,130
2017-08-05T06:13:39.772Z,105
2017-08-05T06:14:39.774Z,110
2017-08-05T06:15:39.778Z,115
2017-08-05T06:16:39.677Z,130
2017-08-05T06:17:39.319Z,135
2017-08-05T06:18:39.780Z,245
2017-08-05T06:19:39.677Z,220
2017-08-05T06:20:39.680Z,130
2017-08-05T06:21:39.679Z,135
2017-08-05T06:22:39.675Z,135
2017-08-05T06:23:39.980Z,145
2017-08-05T06:24:39.789Z,115
2017-08-05T06:25:39.374Z,125
2017-08-05T06:26:39.690Z,115
2017-08-05T06:27:39.681Z,120
2017-08-05T06:28:39.785Z,130
2017-08-05T06:29:39.827Z,135
2017-08-05T06:30:39.727Z,280
2017-08-05T06:31:39.786Z,125
2017-08-05T06:32:39.701Z,175
2017-08-05T06:33:39.684Z,165
2017-08-05T06:34:39.834Z,135
2017-08-05T06:35:39.792Z,105
2017-08-05T06:36:39.789Z,75
2017-08-05T06:37:39.688Z,70
2017-08-05T06:38:39.839Z,80
2017-08-05T06:39:39.893Z,250
2017-08-05T06:40:39.796Z,75
2017-08-05T06:41:39.391Z,70
2017-08-05T06:42:39.688Z,70
2017-08-05T06:43:39.693Z,80
2017-08-05T06:44:39.842Z,80
2017-08-05T06:45:39.701Z,115
2017-08-05T06:46:39.389Z,130
2017-08-05T06:47:39.806Z,260
2017-08-05T06:48:39.709Z,190
2017-08-05T06:49:39.717Z,460
2017-08-05T06:50:39.795Z,195
2017-08-05T06:51:39.799Z,615
2017-08-05T06:52:39.699Z,605
2017-08-05T06:53:39.395Z,390
2017-08-05T06:54:40.101Z,520
2017-08-05T06:55:39.795Z,250
2017-08-05T06:56:39.693Z,200
2017-08-05T06:57:39.700Z,230
2017-08-05T06:58:39.702Z,290
2017-08-05T06:59:39.541Z,490
2017-08-05T07:00:39.857Z,355
2017-08-05T07:01:39.500Z,445
2017-08-05T07:02:39.712Z,415
2017-08-05T07:03:39.811Z,395
2017-08-05T07:04:39.823Z,420
2017-08-05T07:05:39.713Z,430
2017-08-05T07:06:39.402Z,410
2017-08-05T07:07:39.521Z,415
2017-08-05T07:08:39.714Z,435
2017-08-05T07:09:39.508Z,255
2017-08-05T07:10:39.713Z,540
2017-08-05T07:11:39.718Z,485
2017-08-05T07:12:39.724Z,505
2017-08-05T07:13:39.823Z,245
2017-08-05T07:14:39.877Z,175
2017-08-05T07:15:39.724Z,195
2017-08-05T07:16:39.719Z,555
2017-08-05T07:17:39.834Z,550
2017-08-05T07:18:39.529Z,245
2017-08-05T07:19:39.821Z,170
2017-08-05T07:20:39.884Z,230
2017-08-05T07:21:39.423Z,185
2017-08-05T07:22:39.733Z,145
2017-08-05T07:23:39.726Z,215
2017-08-05T07:24:39.862Z,285
2017-08-05T07:25:39.753Z,275
2017-08-05T07:26:39.741Z,295
2017-08-05T07:27:39.738Z,295
2017-08-05T07:28:39.746Z,190
2017-08-05T07:29:39.951Z,290
2017-08-05T07:30:39.743Z,275
2017-08-05T07:31:39.854Z,255
2017-08-05T07:32:39.756Z,245
2017-08-05T07:33:39.747Z,245
2017-08-05T07:34:39.956Z,170
2017-08-05T07:35:39.961Z,165
2017-08-05T07:36:39.646Z,185
2017-08-05T07:37:39.760Z,200
2017-08-05T07:38:39.759Z,210
2017-08-05T07:39:39.761Z,220
2017-08-05T07:40:39.873Z,205
2017-08-05T07:41:39.762Z,190
2017-08-05T07:42:39.778Z,190
2017-08-05T07:43:39.458Z,190
2017-08-05T07:44:39.763Z,185
2017-08-05T07:45:39.971Z,185
2017-08-05T07:46:39.666Z,200
2017-08-05T07:47:39.304Z,215
2017-08-05T07:48:39.785Z,170
2017-08-05T07:49:39.568Z,190
2017-08-05T07:50:39.473Z,195
2017-08-05T07:51:39.641Z,190
2017-08-05T07:52:39.876Z,180
2017-08-05T07:53:39.777Z,180
2017-08-05T07:54:39.803Z,195
2017-08-05T07:55:39.802Z,195
2017-08-05T07:56:39.791Z,200
2017-08-05T07:57:39.942Z,195
2017-08-05T07:58:39.813Z,195
2017-08-05T07:59:39.797Z,190
2017-08-05T08:00:39.943Z,185
2017-08-05T08:01:39.796Z,185
2017-08-05T08:02:39.645Z,185
2017-08-05T08:03:39.801Z,185
2017-08-05T08:04:39.909Z,185
2017-08-05T08:05:39.803Z,190
2017-08-05T08:06:39.593Z,190
2017-08-05T08:07:39.952Z,185
2017-08-05T08:08:39.818Z,185
2017-08-05T08:09:39.831Z,180
2017-08-05T08:10:39.821Z,185
2017-08-05T08:11:39.923Z,195
2017-08-05T08:12:40.018Z,185
2017-08-05T08:13:39.199Z,175
2017-08-05T08:14:39.813Z,175
2017-08-05T08:15:39.823Z,180
2017-08-05T08:16:39.923Z,175
2017-08-05T08:17:39.511Z,150
2017-08-05T08:18:39.818Z,135
2017-08-05T08:19:39.821Z,125
2017-08-05T08:20:39.821Z,125
2017-08-05T08:21:39.519Z,130
2017-08-05T08:22:39.871Z,120
2017-08-05T08:23:39.983Z,105
2017-08-05T08:24:39.826Z,100
2017-08-05T08:25:39.827Z,95
2017-08-05T08:26:39.836Z,90
2017-08-05T08:27:39.929Z,90
2017-08-05T08:28:39.833Z,85
2017-08-05T08:29:39.982Z,85
2017-08-05T08:30:39.526Z,85
2017-08-05T08:31:39.946Z,80
2017-08-05T08:32:39.937Z,75
2017-08-05T08:33:39.531Z,75
2017-08-05T08:34:39.990Z,75
2017-08-05T08:35:39.836Z,75
2017-08-05T08:36:39.636Z,75
2017-08-05T08:37:39.946Z,70
2017-08-05T08:38:39.946Z,70
2017-08-05T08:39:39.333Z,70
2017-08-05T08:40:39.850Z,65
2017-08-05T08:41:39.848Z,65
2017-08-05T08:42:39.988Z,65
2017-08-05T08:43:39.848Z,65
2017-08-05T08:44:39.862Z,65
2017-08-05T08:45:40.144Z,65
2017-08-05T08:46:39.543Z,65
2017-08-05T08:47:39.639Z,65
2017-08-05T08:48:39.850Z,65
2017-08-05T08:49:39.542Z,65
2017-08-05T08:50:39.546Z,65
2017-08-05T08:51:39.999Z,65
2017-08-05T08:52:39.950Z,65
2017-08-05T08:53:39.854Z,65
2017-08-05T08:54:39.850Z,60
2017-08-05T08:55:39.851Z,60
2017-08-05T08:56:39.862Z,60
2017-08-05T08:57:39.558Z,60
2017-08-05T08:58:39.858Z,60
2017-08-05T08:59:40.049Z,60
2017-08-05T09:00:39.999Z,60
2017-08-05T09:01:39.857Z,60
2017-08-05T09:02:39.852Z,60
2017-08-05T09:03:39.874Z,60
2017-08-05T09:04:39.958Z,60
2017-08-05T09:05:39.648Z,60
2017-08-05T09:06:39.563Z,60
2017-08-05T09:07:39.966Z,55
2017-08-05T09:08:39.860Z,55
2017-08-05T09:09:39.248Z,55
2017-08-05T09:10:39.865Z,55
2017-08-05T09:11:40.016Z,55
2017-08-05T09:12:39.553Z,55
2017-08-05T09:13:39.549Z,55
2017-08-05T09:14:39.871Z,55
2017-08-05T09:15:39.559Z,55
2017-08-05T09:16:39.800Z,60
2017-08-05T09:17:39.869Z,60
2017-08-05T09:18:39.861Z,60
2017-08-05T09:19:40.108Z,60
2017-08-05T09:20:39.561Z,60
2017-08-05T09:21:39.863Z,60
2017-08-05T09:22:39.967Z,60
2017-08-05T09:23:39.866Z,60
2017-08-05T09:24:39.960Z,60
2017-08-05T09:25:40.064Z,60
2017-08-05T09:26:39.871Z,60
2017-08-05T09:27:39.862Z,60
2017-08-05T09:28:39.560Z,60
2017-08-05T09:29:39.558Z,60
2017-08-05T09:30:39.961Z,60
2017-08-05T09:31:39.559Z,60
2017-08-05T09:32:39.964Z,60
2017-08-05T09:33:39.867Z,60
2017-08-05T09:34:39.861Z,55
2017-08-05T09:35:39.774Z,55
2017-08-05T09:36:39.858Z,60
2017-08-05T09:37:39.954Z,70
2017-08-05T09:38:39.868Z,80
2017-08-05T09:39:39.553Z,80
2017-08-05T09:40:39.971Z,65
2017-08-05T09:41:39.255Z,60
2017-08-05T09:42:39.865Z,55
2017-08-05T09:43:39.855Z,55
2017-08-05T09:44:39.859Z,55
2017-08-05T09:45:40.069Z,55
2017-08-05T09:46:39.867Z,55
2017-08-05T09:47:39.968Z,55
2017-08-05T09:48:39.862Z,55
2017-08-05T09:49:39.965Z,55
2017-08-05T09:50:39.558Z,60
2017-08-05T09:51:39.560Z,60
2017-08-05T09:52:39.965Z,65
2017-08-05T09:53:39.859Z,65
2017-08-05T09:54:39.872Z,60
2017-08-05T09:55:40.035Z,55
2017-08-05T09:56:39.868Z,50
2017-08-05T09:57:40.063Z,50
2017-08-05T09:58:39.891Z,50
2017-08-05T09:59:39.659Z,50
2017-08-05T10:00:39.814Z,50
2017-08-05T10:01:39.875Z,50
2017-08-05T10:02:39.876Z,50
2017-08-05T10:03:39.867Z,50
2017-08-05T10:04:40.062Z,50
2017-08-05T10:05:39.964Z,50
2017-08-05T10:06:39.858Z,50
2017-08-05T10:07:39.870Z,50
2017-08-05T10:08:39.866Z,50
2017-08-05T10:09:40.013Z,50
2017-08-05T10:10:40.168Z,50
2017-08-05T10:11:39.559Z,50
2017-08-05T10:12:39.877Z,50
2017-08-05T10:13:39.878Z,50
2017-08-05T10:14:39.861Z,45
2017-08-05T10:15:39.975Z,45
2017-08-05T10:16:39.967Z,45
2017-08-05T10:17:39.864Z,45
2017-08-05T10:18:39.872Z,45
2017-08-05T10:19:39.862Z,50
2017-08-05T10:20:39.762Z,35
2017-08-05T10:21:40.070Z,45
2017-08-05T10:22:39.981Z,50
2017-08-05T10:23:39.878Z,50
2017-08-05T10:24:40.020Z,45
2017-08-05T10:25:39.866Z,50
2017-08-05T10:26:39.971Z,50
2017-08-05T10:27:39.557Z,50
2017-08-05T10:28:39.558Z,55
2017-08-05T10:29:39.712Z,55
2017-08-05T10:30:39.562Z,50
2017-08-05T10:31:39.965Z,50
2017-08-05T10:32:39.974Z,55
2017-08-05T10:33:40.024Z,60
2017-08-05T10:34:40.026Z,55
2017-08-05T10:35:39.968Z,55
2017-08-05T10:36:39.867Z,55
2017-08-05T10:37:39.667Z,55
2017-08-05T10:38:39.575Z,50
2017-08-05T10:39:39.878Z,45
2017-08-05T10:40:39.873Z,45
2017-08-05T10:41:39.969Z,45
2017-08-05T10:42:39.872Z,45
2017-08-05T10:43:39.715Z,45
2017-08-05T10:44:39.570Z,45
2017-08-05T10:45:39.873Z,50
2017-08-05T10:46:39.974Z,55
2017-08-05T10:47:39.869Z,55
2017-08-05T10:48:39.890Z,50
2017-08-05T10:49:39.873Z,45
2017-08-05T10:50:39.867Z,45
2017-08-05T10:51:39.667Z,45
2017-08-05T10:52:39.731Z,40
2017-08-05T10:53:39.664Z,40
2017-08-05T10:54:39.708Z,40
2017-08-05T10:55:39.876Z,40
2017-08-05T10:56:39.876Z,40
2017-08-05T10:57:39.871Z,40
2017-08-05T10:58:39.987Z,40
2017-08-05T10:59:39.906Z,40
2017-08-05T11:00:39.865Z,40
2017-08-05T11:01:39.977Z,40
2017-08-05T11:02:40.033Z,40
2017-08-05T11:03:39.881Z,40
2017-08-05T11:04:39.567Z,45
2017-08-05T11:05:39.978Z,45
2017-08-05T11:06:39.969Z,55
2017-08-05T11:07:39.457Z,50
2017-08-05T11:08:39.967Z,45
2017-08-05T11:09:39.569Z,45
2017-08-05T11:10:39.865Z,40
2017-08-05T11:11:39.882Z,40
2017-08-05T11:12:39.569Z,40
2017-08-05T11:13:39.881Z,40
2017-08-05T11:14:39.562Z,40
2017-08-05T11:15:39.558Z,40
2017-08-05T11:16:39.589Z,40
2017-08-05T11:17:39.668Z,40
2017-08-05T11:18:39.565Z,40
2017-08-05T11:19:39.877Z,40
2017-08-05T11:20:39.980Z,40
2017-08-05T11:21:39.561Z,40
2017-08-05T11:22:39.879Z,40
2017-08-05T11:23:39.873Z,40
2017-08-05T11:24:39.814Z,40
2017-08-05T11:25:39.570Z,40
2017-08-05T11:26:39.973Z,40
2017-08-05T11:27:39.566Z,40
2017-08-05T11:28:39.663Z,45
2017-08-05T11:29:39.872Z,40
2017-08-05T11:30:39.870Z,40
2017-08-05T11:31:39.569Z,40
2017-08-05T11:32:39.881Z,35
2017-08-05T11:33:39.669Z,35
2017-08-05T11:34:39.763Z,35
2017-08-05T11:35:39.872Z,35
2017-08-05T11:36:40.003Z,40
2017-08-05T11:37:39.568Z,40
2017-08-05T11:38:39.875Z,40
2017-08-05T11:39:39.564Z,40
2017-08-05T11:40:39.870Z,40
2017-08-05T11:41:39.560Z,45
2017-08-05T11:42:39.712Z,45
2017-08-05T11:43:39.971Z,50
2017-08-05T11:44:39.265Z,55
2017-08-05T11:45:39.985Z,50
2017-08-05T11:46:39.885Z,50
2017-08-05T11:47:39.877Z,50
2017-08-05T11:48:39.559Z,50
2017-08-05T11:49:39.969Z,50
2017-08-05T11:50:39.872Z,50
2017-08-05T11:51:39.968Z,50
2017-08-05T11:52:39.869Z,50
2017-08-05T11:53:39.972Z,50
2017-08-05T11:54:39.876Z,55
2017-08-05T11:55:39.879Z,50
2017-08-05T11:56:39.877Z,45
2017-08-05T11:57:39.872Z,45
2017-08-05T11:58:39.869Z,45
2017-08-05T11:59:39.568Z,45
2017-08-05T12:00:39.261Z,40
2017-08-05T12:01:39.771Z,40
2017-08-05T12:02:39.976Z,40
2017-08-05T12:03:39.870Z,40
2017-08-05T12:04:39.976Z,40
2017-08-05T12:05:40.072Z,40
2017-08-05T12:06:39.875Z,40
2017-08-05T12:07:40.075Z,40
2017-08-05T12:08:39.873Z,40
2017-08-05T12:09:39.880Z,40
2017-08-05T12:10:39.889Z,35
2017-08-05T12:11:39.676Z,30
2017-08-05T12:12:39.666Z,35
2017-08-05T12:13:39.870Z,30
2017-08-05T12:14:39.873Z,30
2017-08-05T12:15:39.888Z,40
2017-08-05T12:16:39.873Z,35
2017-08-05T12:17:39.870Z,35
2017-08-05T12:18:39.263Z,30
2017-08-05T12:19:39.983Z,35
2017-08-05T12:20:39.876Z,45
2017-08-05T12:21:39.571Z,60
2017-08-05T12:22:39.971Z,65
2017-08-05T12:23:39.769Z,65
2017-08-05T12:24:39.879Z,65
2017-08-05T12:25:39.572Z,65
2017-08-05T12:26:39.875Z,55
2017-08-05T12:27:39.976Z,60
2017-08-05T12:28:39.893Z,65
2017-08-05T12:29:39.770Z,80
2017-08-05T12:30:39.670Z,80
2017-08-05T12:31:39.876Z,75
2017-08-05T12:32:39.880Z,75
2017-08-05T12:33:39.873Z,60
2017-08-05T12:34:40.184Z,60
2017-08-05T12:35:39.885Z,70
2017-08-05T12:36:40.082Z,70
2017-08-05T12:37:39.873Z,65
2017-08-05T12:38:39.671Z,55
2017-08-05T12:39:39.921Z,55
2017-08-05T12:40:39.871Z,60
2017-08-05T12:41:39.872Z,75
2017-08-05T12:42:39.882Z,75
2017-08-05T12:43:39.885Z,65
2017-08-05T12:44:39.670Z,60
2017-08-05T12:45:39.877Z,60
2017-08-05T12:46:39.877Z,55
2017-08-05T12:47:40.005Z,50
2017-08-05T12:48:39.885Z,50
2017-08-05T12:49:39.878Z,55
2017-08-05T12:50:39.977Z,60
2017-08-05T12:51:39.884Z,65
2017-08-05T12:52:39.883Z,75
2017-08-05T12:53:39.883Z,65
2017-08-05T12:54:39.885Z,60
2017-08-05T12:55:39.266Z,75
2017-08-05T12:56:39.990Z,80
2017-08-05T12:57:39.978Z,65
2017-08-05T12:58:39.578Z,65
2017-08-05T12:59:39.882Z,60
2017-08-05T13:00:39.575Z,65
2017-08-05T13:01:39.367Z,65
2017-08-05T13:02:39.981Z,60
2017-08-05T13:03:39.574Z,70
2017-08-05T13:04:39.582Z,70
2017-08-05T13:05:39.883Z,75
2017-08-05T13:06:40.083Z,80
2017-08-05T13:07:39.885Z,80
2017-08-05T13:08:39.900Z,80
2017-08-05T13:09:39.721Z,75
2017-08-05T13:10:39.887Z,65
2017-08-05T13:11:39.989Z,70
2017-08-05T13:12:39.987Z,65
2017-08-05T13:13:39.882Z,70
2017-08-05T13:14:40.033Z,70
2017-08-05T13:15:39.280Z,75
2017-08-05T13:16:39.887Z,70
2017-08-05T13:17:40.039Z,75
2017-08-05T13:18:39.695Z,75
2017-08-05T13:19:39.588Z,80
2017-08-05T13:20:39.890Z,85
2017-08-05T13:21:39.894Z,80
2017-08-05T13:22:39.675Z,85
2017-08-05T13:23:39.681Z,75
2017-08-05T13:24:39.876Z,70
2017-08-05T13:25:39.992Z,50
2017-08-05T13:26:39.884Z,45
2017-08-05T13:27:39.275Z,40
2017-08-05T13:28:39.741Z,40
2017-08-05T13:29:39.992Z,35
2017-08-05T13:30:39.997Z,40
2017-08-05T13:31:39.687Z,50
2017-08-05T13:32:39.894Z,50
2017-08-05T13:33:39.898Z,50
2017-08-05T13:34:39.900Z,50
2017-08-05T13:35:39.685Z,45
2017-08-05T13:36:39.584Z,40
2017-08-05T13:37:39.584Z,40
2017-08-05T13:38:39.889Z,30
2017-08-05T13:39:39.889Z,35
2017-08-05T13:40:40.092Z,35
2017-08-05T13:41:39.895Z,35
2017-08-05T13:42:40.005Z,35
2017-08-05T13:43:39.901Z,40
2017-08-05T13:44:40.047Z,45
2017-08-05T13:45:40.201Z,45
2017-08-05T13:46:39.901Z,50
2017-08-05T13:47:39.906Z,55
2017-08-05T13:48:40.107Z,55
2017-08-05T13:49:39.893Z,60
2017-08-05T13:50:39.900Z,50
2017-08-05T13:51:39.919Z,50
2017-08-05T13:52:39.893Z,50
2017-08-05T13:53:39.998Z,45
2017-08-05T13:54:39.900Z,55
2017-08-05T13:55:39.590Z,55
2017-08-05T13:56:39.794Z,60
2017-08-05T13:57:39.597Z,50
2017-08-05T13:58:39.594Z,50
2017-08-05T13:59:39.591Z,55
2017-08-05T14:00:40.005Z,55
2017-08-05T14:01:40.100Z,50
2017-08-05T14:02:39.695Z,40
2017-08-05T14:03:40.011Z,40
2017-08-05T14:04:39.895Z,40
2017-08-05T14:05:39.903Z,40
2017-08-05T14:06:39.745Z,40
2017-08-05T14:07:39.664Z,40
2017-08-05T14:08:39.898Z,40
2017-08-05T14:09:40.047Z,40
2017-08-05T14:10:39.597Z,40
2017-08-05T14:11:39.601Z,35
2017-08-05T14:12:40.006Z,35
2017-08-05T14:13:39.905Z,35
2017-08-05T14:14:39.913Z,30
2017-08-05T14:15:39.294Z,25
2017-08-05T14:16:40.051Z,25
2017-08-05T14:17:39.909Z,25
2017-08-05T14:18:40.008Z,25